sensor_id;sensor_type;location;lat;lon;timestamp;P1;durP1;ratioP1;P2;durP2;ratioP2
77016;SDS011;65949;53.132;17.930;2023-08-06T00:00:30;7.10;;;2.70;;
77016;SDS011;65949;53.132;17.930;2023-08-06T00:03:16;6.00;;;3.00;;
77016;SDS011;65949;53.132;17.930;2023-08-06T00:05:43;4.80;;;2.30;;
77016;SDS011;65949;53.132;17.930;2023-08-06T00:08:09;5.50;;;2.20;;
77016;SDS011;65949;53.132;17.930;2023-08-06T00:10:36;8.00;;;2.70;;
77016;SDS011;65949;53.132;17.930;2023-08-06T00:13:03;7.00;;;3.10;;
77016;SDS011;65949;53.132;17.930;2023-08-06T00:15:29;7.20;;;2.70;;
77016;SDS011;65949;53.132;17.930;2023-08-06T00:17:56;6.50;;;2.90;;
77016;SDS011;65949;53.132;17.930;2023-08-06T00:20:22;6.50;;;2.90;;
77016;SDS011;65949;53.132;17.930;2023-08-06T00:22:49;6.70;;;2.70;;
77016;SDS011;65949;53.132;17.930;2023-08-06T00:25:15;7.50;;;2.80;;
77016;SDS011;65949;53.132;17.930;2023-08-06T00:27:42;6.90;;;2.90;;
77016;SDS011;65949;53.132;17.930;2023-08-06T00:30:08;6.00;;;2.80;;
77016;SDS011;65949;53.132;17.930;2023-08-06T00:32:35;7.00;;;3.00;;
77016;SDS011;65949;53.132;17.930;2023-08-06T00:35:02;7.00;;;2.90;;
77016;SDS011;65949;53.132;17.930;2023-08-06T00:37:29;6.50;;;3.20;;
77016;SDS011;65949;53.132;17.930;2023-08-06T00:39:56;7.20;;;3.20;;
77016;SDS011;65949;53.132;17.930;2023-08-06T00:42:22;6.50;;;3.10;;
77016;SDS011;65949;53.132;17.930;2023-08-06T00:44:50;7.80;;;3.30;;
77016;SDS011;65949;53.132;17.930;2023-08-06T00:47:17;7.40;;;3.60;;
77016;SDS011;65949;53.132;17.930;2023-08-06T00:49:45;6.70;;;3.30;;
77016;SDS011;65949;53.132;17.930;2023-08-06T00:52:11;7.00;;;3.80;;
77016;SDS011;65949;53.132;17.930;2023-08-06T00:54:40;7.60;;;4.00;;
77016;SDS011;65949;53.132;17.930;2023-08-06T00:57:07;6.70;;;3.30;;
77016;SDS011;65949;53.132;17.930;2023-08-06T00:59:35;6.90;;;3.30;;
77016;SDS011;65949;53.132;17.930;2023-08-06T01:02:02;9.00;;;3.80;;
77016;SDS011;65949;53.132;17.930;2023-08-06T01:04:28;6.60;;;3.30;;
77016;SDS011;65949;53.132;17.930;2023-08-06T01:17:50;7.00;;;3.60;;
77016;SDS011;65949;53.132;17.930;2023-08-06T01:20:18;5.90;;;2.70;;
77016;SDS011;65949;53.132;17.930;2023-08-06T01:22:45;5.70;;;2.60;;
77016;SDS011;65949;53.132;17.930;2023-08-06T01:25:11;6.40;;;2.50;;
77016;SDS011;65949;53.132;17.930;2023-08-06T01:27:44;6.60;;;2.70;;
77016;SDS011;65949;53.132;17.930;2023-08-06T01:30:22;6.80;;;3.30;;
77016;SDS011;65949;53.132;17.930;2023-08-06T01:32:59;12.20;;;3.30;;
77016;SDS011;65949;53.132;17.930;2023-08-06T01:35:30;7.40;;;3.20;;
77016;SDS011;65949;53.132;17.930;2023-08-06T01:37:59;6.30;;;3.00;;
77016;SDS011;65949;53.132;17.930;2023-08-06T01:40:27;6.80;;;3.40;;
77016;SDS011;65949;53.132;17.930;2023-08-06T01:42:54;6.80;;;3.20;;
77016;SDS011;65949;53.132;17.930;2023-08-06T01:45:21;6.90;;;3.40;;
77016;SDS011;65949;53.132;17.930;2023-08-06T01:47:49;6.80;;;3.10;;
77016;SDS011;65949;53.132;17.930;2023-08-06T01:50:15;7.50;;;4.20;;
77016;SDS011;65949;53.132;17.930;2023-08-06T01:52:42;5.80;;;2.80;;
77016;SDS011;65949;53.132;17.930;2023-08-06T01:55:08;6.80;;;2.80;;
77016;SDS011;65949;53.132;17.930;2023-08-06T01:57:35;6.40;;;2.70;;
77016;SDS011;65949;53.132;17.930;2023-08-06T02:00:02;6.10;;;2.70;;
77016;SDS011;65949;53.132;17.930;2023-08-06T02:02:39;7.20;;;3.10;;
77016;SDS011;65949;53.132;17.930;2023-08-06T02:05:07;6.50;;;2.60;;
77016;SDS011;65949;53.132;17.930;2023-08-06T02:07:33;8.30;;;3.20;;
77016;SDS011;65949;53.132;17.930;2023-08-06T02:10:00;5.80;;;2.70;;
77016;SDS011;65949;53.132;17.930;2023-08-06T02:12:26;6.20;;;2.50;;
77016;SDS011;65949;53.132;17.930;2023-08-06T02:14:53;5.80;;;2.70;;
77016;SDS011;65949;53.132;17.930;2023-08-06T02:17:20;6.20;;;3.00;;
77016;SDS011;65949;53.132;17.930;2023-08-06T02:19:46;5.60;;;2.50;;
77016;SDS011;65949;53.132;17.930;2023-08-06T02:22:13;6.60;;;2.70;;
77016;SDS011;65949;53.132;17.930;2023-08-06T02:24:39;6.80;;;3.20;;
77016;SDS011;65949;53.132;17.930;2023-08-06T02:27:06;6.50;;;3.10;;
77016;SDS011;65949;53.132;17.930;2023-08-06T02:29:33;6.70;;;3.00;;
77016;SDS011;65949;53.132;17.930;2023-08-06T02:32:00;6.40;;;3.20;;
77016;SDS011;65949;53.132;17.930;2023-08-06T02:34:28;5.90;;;2.60;;
77016;SDS011;65949;53.132;17.930;2023-08-06T02:36:55;7.00;;;2.80;;
77016;SDS011;65949;53.132;17.930;2023-08-06T02:39:21;6.20;;;2.70;;
77016;SDS011;65949;53.132;17.930;2023-08-06T02:41:48;6.90;;;2.90;;
77016;SDS011;65949;53.132;17.930;2023-08-06T02:44:15;5.60;;;2.70;;
77016;SDS011;65949;53.132;17.930;2023-08-06T02:46:41;7.60;;;3.00;;
77016;SDS011;65949;53.132;17.930;2023-08-06T02:49:08;7.20;;;2.40;;
77016;SDS011;65949;53.132;17.930;2023-08-06T02:51:34;6.20;;;2.30;;
77016;SDS011;65949;53.132;17.930;2023-08-06T02:54:01;5.80;;;2.70;;
77016;SDS011;65949;53.132;17.930;2023-08-06T02:56:28;6.40;;;3.30;;
77016;SDS011;65949;53.132;17.930;2023-08-06T02:59:02;5.60;;;2.40;;
77016;SDS011;65949;53.132;17.930;2023-08-06T03:01:47;7.00;;;2.40;;
77016;SDS011;65949;53.132;17.930;2023-08-06T03:04:18;5.80;;;2.40;;
77016;SDS011;65949;53.132;17.930;2023-08-06T03:06:44;6.50;;;3.00;;
77016;SDS011;65949;53.132;17.930;2023-08-06T03:09:11;6.60;;;3.40;;
77016;SDS011;65949;53.132;17.930;2023-08-06T03:11:39;5.80;;;2.40;;
77016;SDS011;65949;53.132;17.930;2023-08-06T03:14:08;7.10;;;2.20;;
77016;SDS011;65949;53.132;17.930;2023-08-06T03:16:36;6.40;;;2.70;;
77016;SDS011;65949;53.132;17.930;2023-08-06T03:19:03;6.50;;;2.60;;
77016;SDS011;65949;53.132;17.930;2023-08-06T03:21:30;5.60;;;2.80;;
77016;SDS011;65949;53.132;17.930;2023-08-06T03:23:57;7.30;;;3.20;;
77016;SDS011;65949;53.132;17.930;2023-08-06T03:26:24;7.00;;;2.90;;
77016;SDS011;65949;53.132;17.930;2023-08-06T03:28:51;6.80;;;3.10;;
77016;SDS011;65949;53.132;17.930;2023-08-06T03:31:18;6.00;;;2.90;;
77016;SDS011;65949;53.132;17.930;2023-08-06T03:33:45;7.00;;;3.10;;
77016;SDS011;65949;53.132;17.930;2023-08-06T03:36:15;5.80;;;2.50;;
77016;SDS011;65949;53.132;17.930;2023-08-06T03:38:42;6.30;;;2.70;;
77016;SDS011;65949;53.132;17.930;2023-08-06T03:41:09;5.40;;;2.40;;
77016;SDS011;65949;53.132;17.930;2023-08-06T03:43:36;5.80;;;2.60;;
77016;SDS011;65949;53.132;17.930;2023-08-06T03:46:05;6.20;;;2.40;;
77016;SDS011;65949;53.132;17.930;2023-08-06T03:48:31;5.90;;;2.50;;
77016;SDS011;65949;53.132;17.930;2023-08-06T03:50:58;5.30;;;2.40;;
77016;SDS011;65949;53.132;17.930;2023-08-06T03:53:28;5.90;;;2.30;;
77016;SDS011;65949;53.132;17.930;2023-08-06T03:55:55;6.90;;;2.70;;
77016;SDS011;65949;53.132;17.930;2023-08-06T03:58:26;5.60;;;2.70;;
77016;SDS011;65949;53.132;17.930;2023-08-06T04:01:00;6.50;;;2.40;;
77016;SDS011;65949;53.132;17.930;2023-08-06T04:03:29;4.70;;;2.10;;
77016;SDS011;65949;53.132;17.930;2023-08-06T04:05:55;6.20;;;2.50;;
77016;SDS011;65949;53.132;17.930;2023-08-06T04:08:22;6.70;;;2.60;;
77016;SDS011;65949;53.132;17.930;2023-08-06T04:10:49;6.50;;;3.00;;
77016;SDS011;65949;53.132;17.930;2023-08-06T04:13:17;6.30;;;3.00;;
77016;SDS011;65949;53.132;17.930;2023-08-06T04:15:44;6.60;;;2.90;;
77016;SDS011;65949;53.132;17.930;2023-08-06T04:18:10;5.50;;;2.60;;
77016;SDS011;65949;53.132;17.930;2023-08-06T04:20:44;6.70;;;2.90;;
77016;SDS011;65949;53.132;17.930;2023-08-06T04:23:12;6.10;;;2.50;;
77016;SDS011;65949;53.132;17.930;2023-08-06T04:25:39;5.60;;;2.70;;
77016;SDS011;65949;53.132;17.930;2023-08-06T04:28:06;5.60;;;2.30;;
77016;SDS011;65949;53.132;17.930;2023-08-06T04:30:33;5.10;;;2.10;;
77016;SDS011;65949;53.132;17.930;2023-08-06T04:33:01;5.60;;;2.40;;
77016;SDS011;65949;53.132;17.930;2023-08-06T04:35:28;7.40;;;2.90;;
77016;SDS011;65949;53.132;17.930;2023-08-06T04:37:55;4.30;;;1.80;;
77016;SDS011;65949;53.132;17.930;2023-08-06T04:40:22;4.60;;;2.00;;
77016;SDS011;65949;53.132;17.930;2023-08-06T04:42:49;5.00;;;2.00;;
77016;SDS011;65949;53.132;17.930;2023-08-06T04:45:15;7.10;;;2.60;;
77016;SDS011;65949;53.132;17.930;2023-08-06T04:47:42;5.10;;;2.20;;
77016;SDS011;65949;53.132;17.930;2023-08-06T04:50:09;4.90;;;1.80;;
77016;SDS011;65949;53.132;17.930;2023-08-06T04:52:36;4.20;;;1.90;;
77016;SDS011;65949;53.132;17.930;2023-08-06T04:55:04;5.00;;;1.60;;
77016;SDS011;65949;53.132;17.930;2023-08-06T04:57:32;4.20;;;1.70;;
77016;SDS011;65949;53.132;17.930;2023-08-06T04:59:59;4.40;;;1.60;;
77016;SDS011;65949;53.132;17.930;2023-08-06T05:02:25;5.00;;;2.00;;
77016;SDS011;65949;53.132;17.930;2023-08-06T05:04:52;4.40;;;1.50;;
77016;SDS011;65949;53.132;17.930;2023-08-06T05:07:18;4.70;;;1.80;;
77016;SDS011;65949;53.132;17.930;2023-08-06T05:09:45;4.40;;;1.90;;
77016;SDS011;65949;53.132;17.930;2023-08-06T05:12:11;5.80;;;2.40;;
77016;SDS011;65949;53.132;17.930;2023-08-06T05:14:38;6.00;;;2.10;;
77016;SDS011;65949;53.132;17.930;2023-08-06T05:17:05;5.80;;;2.30;;
77016;SDS011;65949;53.132;17.930;2023-08-06T05:19:31;5.00;;;2.30;;
77016;SDS011;65949;53.132;17.930;2023-08-06T05:21:58;6.30;;;2.70;;
77016;SDS011;65949;53.132;17.930;2023-08-06T05:24:24;5.50;;;2.60;;
77016;SDS011;65949;53.132;17.930;2023-08-06T05:26:51;6.20;;;2.60;;
77016;SDS011;65949;53.132;17.930;2023-08-06T05:29:17;5.40;;;2.30;;
77016;SDS011;65949;53.132;17.930;2023-08-06T05:31:44;6.60;;;2.80;;
77016;SDS011;65949;53.132;17.930;2023-08-06T05:34:10;7.30;;;3.10;;
77016;SDS011;65949;53.132;17.930;2023-08-06T05:36:37;6.10;;;3.20;;
77016;SDS011;65949;53.132;17.930;2023-08-06T05:39:04;7.30;;;3.00;;
77016;SDS011;65949;53.132;17.930;2023-08-06T05:41:30;6.60;;;3.40;;
77016;SDS011;65949;53.132;17.930;2023-08-06T05:43:57;7.80;;;3.20;;
77016;SDS011;65949;53.132;17.930;2023-08-06T05:46:23;6.70;;;3.50;;
77016;SDS011;65949;53.132;17.930;2023-08-06T05:48:50;7.50;;;4.20;;
77016;SDS011;65949;53.132;17.930;2023-08-06T05:51:17;7.80;;;3.40;;
77016;SDS011;65949;53.132;17.930;2023-08-06T05:53:44;7.20;;;3.50;;
77016;SDS011;65949;53.132;17.930;2023-08-06T05:56:13;8.20;;;3.40;;
77016;SDS011;65949;53.132;17.930;2023-08-06T05:58:40;7.70;;;3.90;;
77016;SDS011;65949;53.132;17.930;2023-08-06T06:01:07;6.60;;;3.60;;
77016;SDS011;65949;53.132;17.930;2023-08-06T06:03:33;8.20;;;4.10;;
77016;SDS011;65949;53.132;17.930;2023-08-06T06:06:03;9.00;;;4.20;;
77016;SDS011;65949;53.132;17.930;2023-08-06T06:08:29;7.10;;;4.00;;
77016;SDS011;65949;53.132;17.930;2023-08-06T06:10:56;8.60;;;4.70;;
77016;SDS011;65949;53.132;17.930;2023-08-06T06:13:23;7.20;;;4.30;;
77016;SDS011;65949;53.132;17.930;2023-08-06T06:15:49;8.20;;;4.00;;
77016;SDS011;65949;53.132;17.930;2023-08-06T06:18:16;7.80;;;3.90;;
77016;SDS011;65949;53.132;17.930;2023-08-06T06:20:42;8.50;;;4.10;;
77016;SDS011;65949;53.132;17.930;2023-08-06T06:23:09;8.40;;;4.50;;
77016;SDS011;65949;53.132;17.930;2023-08-06T06:25:35;9.60;;;4.40;;
77016;SDS011;65949;53.132;17.930;2023-08-06T06:28:02;7.60;;;4.50;;
77016;SDS011;65949;53.132;17.930;2023-08-06T06:30:29;8.50;;;4.40;;
77016;SDS011;65949;53.132;17.930;2023-08-06T06:32:55;10.60;;;5.30;;
77016;SDS011;65949;53.132;17.930;2023-08-06T06:35:22;9.20;;;4.80;;
77016;SDS011;65949;53.132;17.930;2023-08-06T06:37:48;8.80;;;5.10;;
77016;SDS011;65949;53.132;17.930;2023-08-06T06:40:15;8.40;;;5.40;;
77016;SDS011;65949;53.132;17.930;2023-08-06T06:42:42;8.40;;;5.00;;
77016;SDS011;65949;53.132;17.930;2023-08-06T06:45:09;9.30;;;5.30;;
77016;SDS011;65949;53.132;17.930;2023-08-06T06:47:36;11.30;;;5.50;;
77016;SDS011;65949;53.132;17.930;2023-08-06T06:50:02;8.50;;;5.00;;
77016;SDS011;65949;53.132;17.930;2023-08-06T06:52:29;10.50;;;5.60;;
77016;SDS011;65949;53.132;17.930;2023-08-06T06:54:56;12.00;;;6.10;;
77016;SDS011;65949;53.132;17.930;2023-08-06T06:57:22;13.90;;;5.90;;
77016;SDS011;65949;53.132;17.930;2023-08-06T06:59:49;11.00;;;5.60;;
77016;SDS011;65949;53.132;17.930;2023-08-06T07:02:15;9.80;;;6.10;;
77016;SDS011;65949;53.132;17.930;2023-08-06T07:04:42;11.00;;;5.80;;
77016;SDS011;65949;53.132;17.930;2023-08-06T07:07:09;10.30;;;5.70;;
77016;SDS011;65949;53.132;17.930;2023-08-06T07:09:36;10.30;;;6.40;;
77016;SDS011;65949;53.132;17.930;2023-08-06T07:12:03;10.40;;;5.80;;
77016;SDS011;65949;53.132;17.930;2023-08-06T07:14:30;10.20;;;6.10;;
77016;SDS011;65949;53.132;17.930;2023-08-06T07:16:56;11.30;;;6.00;;
77016;SDS011;65949;53.132;17.930;2023-08-06T07:19:23;9.50;;;5.30;;
77016;SDS011;65949;53.132;17.930;2023-08-06T07:21:50;12.20;;;6.00;;
77016;SDS011;65949;53.132;17.930;2023-08-06T07:24:17;10.60;;;5.80;;
77016;SDS011;65949;53.132;17.930;2023-08-06T07:26:43;10.40;;;5.80;;
77016;SDS011;65949;53.132;17.930;2023-08-06T07:29:10;8.80;;;5.10;;
77016;SDS011;65949;53.132;17.930;2023-08-06T07:31:38;8.40;;;4.50;;
77016;SDS011;65949;53.132;17.930;2023-08-06T07:34:05;10.00;;;4.80;;
77016;SDS011;65949;53.132;17.930;2023-08-06T07:36:31;9.50;;;5.40;;
77016;SDS011;65949;53.132;17.930;2023-08-06T07:38:58;12.10;;;6.90;;
77016;SDS011;65949;53.132;17.930;2023-08-06T07:41:26;9.90;;;5.60;;
77016;SDS011;65949;53.132;17.930;2023-08-06T07:43:52;10.50;;;5.70;;
77016;SDS011;65949;53.132;17.930;2023-08-06T07:46:19;8.80;;;4.90;;
77016;SDS011;65949;53.132;17.930;2023-08-06T07:48:47;8.50;;;4.80;;
77016;SDS011;65949;53.132;17.930;2023-08-06T07:51:13;9.40;;;5.40;;
77016;SDS011;65949;53.132;17.930;2023-08-06T07:53:40;9.50;;;5.40;;
77016;SDS011;65949;53.132;17.930;2023-08-06T07:56:07;10.80;;;5.10;;
77016;SDS011;65949;53.132;17.930;2023-08-06T07:58:34;8.70;;;5.00;;
77016;SDS011;65949;53.132;17.930;2023-08-06T08:01:00;10.40;;;5.40;;
77016;SDS011;65949;53.132;17.930;2023-08-06T08:03:27;8.90;;;4.80;;
77016;SDS011;65949;53.132;17.930;2023-08-06T08:05:54;9.80;;;5.00;;
77016;SDS011;65949;53.132;17.930;2023-08-06T08:08:24;8.90;;;5.00;;
77016;SDS011;65949;53.132;17.930;2023-08-06T08:10:51;10.20;;;5.40;;
77016;SDS011;65949;53.132;17.930;2023-08-06T08:13:18;10.80;;;5.10;;
77016;SDS011;65949;53.132;17.930;2023-08-06T08:15:45;9.80;;;5.80;;
77016;SDS011;65949;53.132;17.930;2023-08-06T08:18:11;10.30;;;5.60;;
77016;SDS011;65949;53.132;17.930;2023-08-06T08:20:39;9.30;;;4.90;;
77016;SDS011;65949;53.132;17.930;2023-08-06T08:23:06;8.30;;;5.00;;
77016;SDS011;65949;53.132;17.930;2023-08-06T08:25:32;8.30;;;4.30;;
77016;SDS011;65949;53.132;17.930;2023-08-06T08:28:00;9.50;;;5.20;;
77016;SDS011;65949;53.132;17.930;2023-08-06T08:30:27;8.50;;;4.50;;
77016;SDS011;65949;53.132;17.930;2023-08-06T08:32:53;8.80;;;5.30;;
77016;SDS011;65949;53.132;17.930;2023-08-06T08:35:20;8.50;;;5.00;;
77016;SDS011;65949;53.132;17.930;2023-08-06T08:37:47;10.70;;;6.00;;
77016;SDS011;65949;53.132;17.930;2023-08-06T08:40:14;9.10;;;5.10;;
77016;SDS011;65949;53.132;17.930;2023-08-06T08:42:41;9.10;;;5.20;;
77016;SDS011;65949;53.132;17.930;2023-08-06T08:45:12;8.20;;;4.50;;
77016;SDS011;65949;53.132;17.930;2023-08-06T08:47:41;8.50;;;5.10;;
77016;SDS011;65949;53.132;17.930;2023-08-06T08:50:09;8.60;;;5.00;;
77016;SDS011;65949;53.132;17.930;2023-08-06T08:52:40;8.20;;;5.20;;
77016;SDS011;65949;53.132;17.930;2023-08-06T08:55:08;8.80;;;4.90;;
77016;SDS011;65949;53.132;17.930;2023-08-06T08:57:35;9.60;;;5.50;;
77016;SDS011;65949;53.132;17.930;2023-08-06T09:00:02;8.80;;;5.00;;
77016;SDS011;65949;53.132;17.930;2023-08-06T09:02:32;9.20;;;5.20;;
77016;SDS011;65949;53.132;17.930;2023-08-06T09:05:00;7.50;;;4.20;;
77016;SDS011;65949;53.132;17.930;2023-08-06T09:07:51;9.50;;;4.80;;
77016;SDS011;65949;53.132;17.930;2023-08-06T09:10:19;8.60;;;4.90;;
77016;SDS011;65949;53.132;17.930;2023-08-06T09:12:50;9.00;;;5.00;;
77016;SDS011;65949;53.132;17.930;2023-08-06T09:15:17;9.60;;;5.10;;
77016;SDS011;65949;53.132;17.930;2023-08-06T09:17:44;7.80;;;5.00;;
77016;SDS011;65949;53.132;17.930;2023-08-06T09:22:41;8.40;;;5.20;;
77016;SDS011;65949;53.132;17.930;2023-08-06T09:25:08;9.30;;;4.80;;
77016;SDS011;65949;53.132;17.930;2023-08-06T09:27:39;8.90;;;5.20;;
77016;SDS011;65949;53.132;17.930;2023-08-06T09:30:06;8.90;;;5.60;;
77016;SDS011;65949;53.132;17.930;2023-08-06T09:32:46;9.60;;;5.40;;
77016;SDS011;65949;53.132;17.930;2023-08-06T09:35:17;8.60;;;5.50;;
77016;SDS011;65949;53.132;17.930;2023-08-06T09:37:45;9.80;;;6.20;;
77016;SDS011;65949;53.132;17.930;2023-08-06T09:40:28;9.40;;;5.40;;
77016;SDS011;65949;53.132;17.930;2023-08-06T09:42:56;8.60;;;5.40;;
77016;SDS011;65949;53.132;17.930;2023-08-06T09:45:28;10.10;;;5.70;;
77016;SDS011;65949;53.132;17.930;2023-08-06T09:47:59;10.50;;;5.90;;
77016;SDS011;65949;53.132;17.930;2023-08-06T09:50:30;12.40;;;6.20;;
77016;SDS011;65949;53.132;17.930;2023-08-06T09:52:58;9.70;;;6.40;;
77016;SDS011;65949;53.132;17.930;2023-08-06T09:55:26;10.90;;;6.20;;
77016;SDS011;65949;53.132;17.930;2023-08-06T09:57:53;12.20;;;6.50;;
77016;SDS011;65949;53.132;17.930;2023-08-06T10:00:21;10.00;;;6.00;;
77016;SDS011;65949;53.132;17.930;2023-08-06T10:02:49;11.40;;;6.40;;
77016;SDS011;65949;53.132;17.930;2023-08-06T10:05:21;11.40;;;6.10;;
77016;SDS011;65949;53.132;17.930;2023-08-06T10:07:49;14.00;;;6.00;;
77016;SDS011;65949;53.132;17.930;2023-08-06T10:10:19;12.20;;;5.70;;
77016;SDS011;65949;53.132;17.930;2023-08-06T10:12:46;11.50;;;6.50;;
77016;SDS011;65949;53.132;17.930;2023-08-06T10:15:17;11.60;;;6.60;;
77016;SDS011;65949;53.132;17.930;2023-08-06T10:17:49;9.60;;;6.20;;
77016;SDS011;65949;53.132;17.930;2023-08-06T10:20:19;10.70;;;5.90;;
77016;SDS011;65949;53.132;17.930;2023-08-06T10:22:59;10.10;;;6.30;;
77016;SDS011;65949;53.132;17.930;2023-08-06T10:25:30;10.60;;;6.10;;
77016;SDS011;65949;53.132;17.930;2023-08-06T10:27:58;9.50;;;6.00;;
77016;SDS011;65949;53.132;17.930;2023-08-06T10:33:07;8.80;;;5.10;;
77016;SDS011;65949;53.132;17.930;2023-08-06T10:38:08;10.20;;;5.10;;
77016;SDS011;65949;53.132;17.930;2023-08-06T10:40:37;8.50;;;4.90;;
77016;SDS011;65949;53.132;17.930;2023-08-06T10:43:06;8.40;;;4.70;;
77016;SDS011;65949;53.132;17.930;2023-08-06T10:45:35;9.20;;;5.30;;
77016;SDS011;65949;53.132;17.930;2023-08-06T10:48:03;8.10;;;4.60;;
77016;SDS011;65949;53.132;17.930;2023-08-06T10:50:31;7.70;;;3.90;;
77016;SDS011;65949;53.132;17.930;2023-08-06T10:52:58;7.70;;;4.70;;
77016;SDS011;65949;53.132;17.930;2023-08-06T10:55:31;8.50;;;4.20;;
77016;SDS011;65949;53.132;17.930;2023-08-06T10:57:58;6.40;;;4.20;;
77016;SDS011;65949;53.132;17.930;2023-08-06T11:00:24;8.30;;;4.50;;
77016;SDS011;65949;53.132;17.930;2023-08-06T11:02:52;7.50;;;4.30;;
77016;SDS011;65949;53.132;17.930;2023-08-06T11:05:19;7.40;;;4.40;;
77016;SDS011;65949;53.132;17.930;2023-08-06T11:07:46;7.80;;;4.30;;
77016;SDS011;65949;53.132;17.930;2023-08-06T11:10:14;7.40;;;4.10;;
77016;SDS011;65949;53.132;17.930;2023-08-06T11:12:41;7.00;;;4.40;;
77016;SDS011;65949;53.132;17.930;2023-08-06T11:15:08;7.50;;;4.30;;
77016;SDS011;65949;53.132;17.930;2023-08-06T11:17:35;7.00;;;4.50;;
77016;SDS011;65949;53.132;17.930;2023-08-06T11:20:03;7.80;;;4.50;;
77016;SDS011;65949;53.132;17.930;2023-08-06T11:22:31;8.30;;;4.80;;
77016;SDS011;65949;53.132;17.930;2023-08-06T11:24:58;8.70;;;4.20;;
77016;SDS011;65949;53.132;17.930;2023-08-06T11:27:26;7.30;;;4.00;;
77016;SDS011;65949;53.132;17.930;2023-08-06T11:29:53;8.60;;;4.70;;
77016;SDS011;65949;53.132;17.930;2023-08-06T11:32:20;8.40;;;4.40;;
77016;SDS011;65949;53.132;17.930;2023-08-06T11:34:46;7.10;;;4.60;;
77016;SDS011;65949;53.132;17.930;2023-08-06T11:37:13;6.90;;;4.50;;
77016;SDS011;65949;53.132;17.930;2023-08-06T11:39:46;8.20;;;3.90;;
77016;SDS011;65949;53.132;17.930;2023-08-06T11:42:16;7.40;;;4.30;;
77016;SDS011;65949;53.132;17.930;2023-08-06T11:44:43;9.00;;;4.70;;
77016;SDS011;65949;53.132;17.930;2023-08-06T11:47:14;7.60;;;4.70;;
77016;SDS011;65949;53.132;17.930;2023-08-06T11:52:16;7.30;;;4.40;;
77016;SDS011;65949;53.132;17.930;2023-08-06T11:57:40;7.70;;;5.40;;
77016;SDS011;65949;53.132;17.930;2023-08-06T12:00:11;7.80;;;5.30;;
77016;SDS011;65949;53.132;17.930;2023-08-06T12:02:41;7.50;;;4.80;;
77016;SDS011;65949;53.132;17.930;2023-08-06T12:07:48;10.10;;;4.90;;
77016;SDS011;65949;53.132;17.930;2023-08-06T12:10:15;8.60;;;5.20;;
77016;SDS011;65949;53.132;17.930;2023-08-06T12:12:43;9.10;;;5.50;;
77016;SDS011;65949;53.132;17.930;2023-08-06T12:15:10;9.90;;;5.70;;
77016;SDS011;65949;53.132;17.930;2023-08-06T12:17:36;11.70;;;6.90;;
77016;SDS011;65949;53.132;17.930;2023-08-06T12:20:04;10.50;;;6.80;;
77016;SDS011;65949;53.132;17.930;2023-08-06T12:22:32;12.60;;;8.40;;
77016;SDS011;65949;53.132;17.930;2023-08-06T12:25:10;12.70;;;8.30;;
77016;SDS011;65949;53.132;17.930;2023-08-06T12:27:41;12.20;;;8.10;;
77016;SDS011;65949;53.132;17.930;2023-08-06T12:30:09;14.30;;;8.90;;
77016;SDS011;65949;53.132;17.930;2023-08-06T12:32:37;15.20;;;9.00;;
77016;SDS011;65949;53.132;17.930;2023-08-06T12:35:04;15.40;;;9.30;;
77016;SDS011;65949;53.132;17.930;2023-08-06T12:37:33;14.80;;;10.20;;
77016;SDS011;65949;53.132;17.930;2023-08-06T12:40:00;16.50;;;9.70;;
77016;SDS011;65949;53.132;17.930;2023-08-06T12:42:27;17.30;;;10.30;;
77016;SDS011;65949;53.132;17.930;2023-08-06T12:44:54;18.20;;;10.50;;
77016;SDS011;65949;53.132;17.930;2023-08-06T12:47:20;16.80;;;11.10;;
77016;SDS011;65949;53.132;17.930;2023-08-06T12:49:47;18.00;;;12.10;;
77016;SDS011;65949;53.132;17.930;2023-08-06T12:52:14;18.80;;;12.10;;
77016;SDS011;65949;53.132;17.930;2023-08-06T12:54:41;21.80;;;12.80;;
77016;SDS011;65949;53.132;17.930;2023-08-06T12:57:08;18.80;;;12.50;;
77016;SDS011;65949;53.132;17.930;2023-08-06T12:59:35;20.10;;;13.40;;
77016;SDS011;65949;53.132;17.930;2023-08-06T13:02:04;20.00;;;13.70;;
77016;SDS011;65949;53.132;17.930;2023-08-06T13:04:31;22.00;;;13.40;;
77016;SDS011;65949;53.132;17.930;2023-08-06T13:07:00;23.20;;;14.50;;
77016;SDS011;65949;53.132;17.930;2023-08-06T13:09:28;23.10;;;14.90;;
77016;SDS011;65949;53.132;17.930;2023-08-06T13:11:57;22.70;;;14.90;;
77016;SDS011;65949;53.132;17.930;2023-08-06T13:14:26;23.00;;;15.50;;
77016;SDS011;65949;53.132;17.930;2023-08-06T13:16:54;26.00;;;17.90;;
77016;SDS011;65949;53.132;17.930;2023-08-06T13:19:22;26.70;;;17.40;;
77016;SDS011;65949;53.132;17.930;2023-08-06T13:24:19;28.00;;;20.20;;
77016;SDS011;65949;53.132;17.930;2023-08-06T13:26:47;27.60;;;19.10;;
77016;SDS011;65949;53.132;17.930;2023-08-06T13:29:15;26.90;;;18.70;;
77016;SDS011;65949;53.132;17.930;2023-08-06T13:31:41;26.80;;;20.30;;
77016;SDS011;65949;53.132;17.930;2023-08-06T13:34:08;28.20;;;19.50;;
77016;SDS011;65949;53.132;17.930;2023-08-06T13:36:35;28.80;;;19.90;;
77016;SDS011;65949;53.132;17.930;2023-08-06T13:39:02;27.90;;;20.30;;
77016;SDS011;65949;53.132;17.930;2023-08-06T13:41:31;29.10;;;19.60;;
77016;SDS011;65949;53.132;17.930;2023-08-06T13:44:01;26.50;;;18.60;;
77016;SDS011;65949;53.132;17.930;2023-08-06T13:46:34;28.90;;;20.80;;
77016;SDS011;65949;53.132;17.930;2023-08-06T13:49:02;32.90;;;21.90;;
77016;SDS011;65949;53.132;17.930;2023-08-06T13:51:29;27.00;;;19.70;;
77016;SDS011;65949;53.132;17.930;2023-08-06T13:53:56;29.80;;;20.90;;
77016;SDS011;65949;53.132;17.930;2023-08-06T13:56:24;28.60;;;20.40;;
77016;SDS011;65949;53.132;17.930;2023-08-06T13:58:51;28.30;;;20.50;;
77016;SDS011;65949;53.132;17.930;2023-08-06T14:01:25;29.30;;;21.90;;
77016;SDS011;65949;53.132;17.930;2023-08-06T14:03:52;28.00;;;19.60;;
77016;SDS011;65949;53.132;17.930;2023-08-06T14:06:19;31.30;;;23.50;;
77016;SDS011;65949;53.132;17.930;2023-08-06T14:08:46;30.30;;;21.60;;
77016;SDS011;65949;53.132;17.930;2023-08-06T14:11:14;31.60;;;21.20;;
77016;SDS011;65949;53.132;17.930;2023-08-06T14:13:42;30.30;;;21.20;;
77016;SDS011;65949;53.132;17.930;2023-08-06T14:16:10;30.50;;;21.60;;
77016;SDS011;65949;53.132;17.930;2023-08-06T14:18:37;32.70;;;22.90;;
77016;SDS011;65949;53.132;17.930;2023-08-06T14:21:07;32.30;;;22.40;;
77016;SDS011;65949;53.132;17.930;2023-08-06T14:23:37;30.20;;;20.70;;
77016;SDS011;65949;53.132;17.930;2023-08-06T14:26:04;28.60;;;20.30;;
77016;SDS011;65949;53.132;17.930;2023-08-06T14:28:33;20.70;;;13.80;;
77016;SDS011;65949;53.132;17.930;2023-08-06T14:31:00;16.10;;;10.70;;
77016;SDS011;65949;53.132;17.930;2023-08-06T14:33:30;14.50;;;9.70;;
77016;SDS011;65949;53.132;17.930;2023-08-06T14:35:57;14.50;;;9.70;;
77016;SDS011;65949;53.132;17.930;2023-08-06T14:38:25;12.30;;;8.30;;
77016;SDS011;65949;53.132;17.930;2023-08-06T14:40:54;13.30;;;8.10;;
77016;SDS011;65949;53.132;17.930;2023-08-06T14:43:20;10.50;;;7.00;;
77016;SDS011;65949;53.132;17.930;2023-08-06T14:45:51;5.30;;;2.60;;
77016;SDS011;65949;53.132;17.930;2023-08-06T14:48:19;4.00;;;1.50;;
77016;SDS011;65949;53.132;17.930;2023-08-06T14:50:46;3.40;;;1.50;;
77016;SDS011;65949;53.132;17.930;2023-08-06T14:53:13;4.60;;;1.80;;
77016;SDS011;65949;53.132;17.930;2023-08-06T14:55:40;5.10;;;1.40;;
77016;SDS011;65949;53.132;17.930;2023-08-06T14:58:08;2.40;;;0.90;;
77016;SDS011;65949;53.132;17.930;2023-08-06T15:00:35;2.10;;;0.80;;